ADDS METAR Data INFO
IDs: Format: Raw Decoded Include TAF

Data at: 2217 UTC 24 Jun 2018

METAR for:TJNR (Roosevelt Roads Arpt, PR, US)
Text:TJNR 242153Z AUTO 06008G17KT 7SM -RA SCT020 BKN030 OVC055 27/26 A3008 RMK AO2 RAB49 SLP185 P0000 T02720261 $
Temperature: 27.2°C ( 81°F)
Dewpoint: 26.1°C ( 79°F) [RH = 94%]
Pressure (altimeter):30.08 inches Hg (1018.7 mb) [Sea level pressure: 1018.5 mb]
Winds:from the ENE (60 degrees) at 9 MPH (8 knots; 4.1 m/s) gusting to 20 MPH (17 knots; 8.7 m/s)
Visibility: 7 sm ( 11 km)
Ceiling:3000 feet AGL
Clouds: scattered clouds at 2000 feet AGL, broken clouds at 3000 feet AGL, overcast cloud deck at 5500 feet AGL
Weather:-RA (light rain)
QC Flag:automated observation with no human augmentation; SOME DATA ABOVE MAY BE INACCURATE!!!"$" is an indication the sensor requires maintenance.